Holleberg Airport


Codes: EDVL/
Name: Holleberg Airport
City: Trendelburg
Country: Germany
Elevation: 837 ft.

Photos at Holleberg Airport


   Photos courtesy of SpottingLog. You can add your own sightings and photos by signing up for a free trial today.



No photos found.

Weather at Holleberg Airport


Time (UTC)DescriptionTempratureWindCloud coverageVisibilityPressureHumidity
13-Jun-2024 03:00Overcast Clouds7°C2 mph, SW87%10000m1020hPa96%
13-Jun-2024 06:00Broken Clouds8°C4 mph, SW75%10000m1020hPa86%
13-Jun-2024 09:00Few Clouds13°C7 mph, W22%10000m1019hPa59%
13-Jun-2024 12:00Scattered Clouds15°C4 mph, SW39%10000m1017hPa51%
13-Jun-2024 15:00Broken Clouds16°C4 mph, SW76%10000m1016hPa50%
13-Jun-2024 18:00Overcast Clouds14°C7 mph, S86%10000m1015hPa71%
13-Jun-2024 21:00Overcast Clouds11°C4 mph, SE100%10000m1015hPa77%
14-Jun-2024 00:00Overcast Clouds10°C4 mph, S100%10000m1015hPa71%
14-Jun-2024 03:00Overcast Clouds10°C4 mph, SE100%10000m1013hPa73%
14-Jun-2024 06:00Light Rain11°C2 mph, S100%10000m1013hPa80%
14-Jun-2024 09:00Light Rain16°C11 mph, SW97%10000m1012hPa66%
14-Jun-2024 12:00Light Rain15°C13 mph, SW97%10000m1012hPa68%
14-Jun-2024 15:00Overcast Clouds16°C13 mph, S94%10000m1011hPa74%
14-Jun-2024 18:00Overcast Clouds14°C11 mph, S97%10000m1011hPa83%
14-Jun-2024 21:00Overcast Clouds13°C7 mph, SE89%10000m1010hPa87%
15-Jun-2024 00:00Overcast Clouds13°C9 mph, S94%10000m1008hPa86%
15-Jun-2024 03:00Overcast Clouds12°C4 mph, SE100%10000m1005hPa92%
15-Jun-2024 06:00Moderate Rain13°C7 mph, S100%10000m1005hPa97%
15-Jun-2024 09:00Light Rain13°C16 mph, SW100%10000m1007hPa92%
15-Jun-2024 12:00Light Rain18°C16 mph, W81%10000m1008hPa53%
15-Jun-2024 15:00Light Rain17°C9 mph, SW82%10000m1009hPa61%
15-Jun-2024 18:00Broken Clouds15°C4 mph, SW74%10000m1010hPa72%
15-Jun-2024 21:00Scattered Clouds10°C7 mph, S31%10000m1012hPa81%
16-Jun-2024 00:00Broken Clouds8°C7 mph, S57%10000m1011hPa88%
16-Jun-2024 03:00Broken Clouds8°C7 mph, S74%10000m1011hPa89%
16-Jun-2024 06:00Overcast Clouds13°C11 mph, SW85%10000m1012hPa78%
16-Jun-2024 09:00Broken Clouds16°C11 mph, SW77%10000m1013hPa69%
16-Jun-2024 12:00Light Rain18°C11 mph, SW70%10000m1012hPa64%
16-Jun-2024 15:00Light Rain18°C11 mph, SW50%10000m1013hPa65%
16-Jun-2024 18:00Light Rain16°C4 mph, SW40%10000m1014hPa86%
16-Jun-2024 21:00Few Clouds12°C4 mph, S13%10000m1015hPa92%
17-Jun-2024 00:00Scattered Clouds10°C4 mph, S43%10000m1016hPa94%
17-Jun-2024 03:00Scattered Clouds10°C4 mph, SE34%10000m1016hPa95%
17-Jun-2024 06:00Broken Clouds14°C7 mph, S63%10000m1016hPa88%
17-Jun-2024 09:00Overcast Clouds19°C9 mph, SW100%10000m1016hPa67%
17-Jun-2024 12:00Light Rain21°C9 mph, SW100%10000m1015hPa61%
17-Jun-2024 15:00Light Rain23°C9 mph, SW100%10000m1014hPa61%
17-Jun-2024 18:00Light Rain19°C4 mph, SW98%10000m1015hPa81%
17-Jun-2024 21:00Light Rain15°C2 mph, NW83%10000m1016hPa93%
18-Jun-2024 00:00Broken Clouds14°C2 mph, S82%10000m1016hPa92%